Time;durP1;ratioP1;P1;durP2;ratioP2;P2;SDS_P1;SDS_P2;PMS_P1;PMS_P2;Temp;Humidity;BMP_temperature;BMP_pressure;BME280_temperature;BME280_humidity;BME280_pressure;Samples;Min_cycle;Max_cycle;Signal;HPM_P1;HPM_P2
2022/07/28 00:02:19;;;;;;;6.80;2.03;;;19.00;99.90;;;;;;5050511;28;21068;-51
2022/07/28 00:04:45;;;;;;;7.60;2.20;;;18.90;99.90;;;;;;5052002;28;20389;-50
2022/07/28 00:07:11;;;;;;;8.40;2.30;;;18.90;99.90;;;;;;5051666;28;20512;-51
2022/07/28 00:09:37;;;;;;;7.10;2.17;;;18.90;99.90;;;;;;5050818;28;20386;-51
2022/07/28 00:12:03;;;;;;;6.57;2.30;;;18.90;99.90;;;;;;5051140;28;20822;-51
2022/07/28 00:14:29;;;;;;;10.47;2.20;;;18.90;99.90;;;;;;5050964;28;20373;-51
2022/07/28 00:16:54;;;;;;;6.13;1.80;;;18.80;99.90;;;;;;5051127;28;20920;-51
2022/07/28 00:19:20;;;;;;;8.25;2.17;;;18.80;99.90;;;;;;5050486;28;20789;-51
2022/07/28 00:21:46;;;;;;;8.60;2.90;;;18.80;99.90;;;;;;5051277;28;21102;-51
2022/07/28 00:24:12;;;;;;;6.30;2.15;;;18.80;99.90;;;;;;5051422;28;20947;-50
2022/07/28 00:26:38;;;;;;;7.43;2.20;;;18.70;99.90;;;;;;5050731;28;20528;-55
2022/07/28 00:29:04;;;;;;;7.00;2.10;;;18.60;99.90;;;;;;5051310;28;20394;-51
2022/07/28 00:31:30;;;;;;;6.32;2.20;;;18.70;99.90;;;;;;5050370;28;20385;-51
2022/07/28 00:33:56;;;;;;;7.27;2.13;;;18.60;99.90;;;;;;5051007;28;20728;-51
2022/07/28 00:36:21;;;;;;;5.80;1.87;;;18.60;99.90;;;;;;5050052;28;20398;-50
2022/07/28 00:38:47;;;;;;;8.50;2.40;;;18.60;99.90;;;;;;5051196;28;20732;-55
2022/07/28 00:41:13;;;;;;;9.20;2.25;;;18.70;99.90;;;;;;5050787;28;20528;-57
2022/07/28 00:43:44;;;;;;;5.90;1.83;;;18.80;99.90;;;;;;5050357;28;20385;-50
2022/07/28 00:46:11;;;;;;;6.50;1.77;;;18.90;99.90;;;;;;5050818;28;20432;-51
2022/07/28 00:48:38;;;;;;;6.70;2.10;;;18.90;99.90;;;;;;5050061;28;20441;-50
2022/07/28 00:51:04;;;;;;;5.75;2.00;;;18.90;99.90;;;;;;5051248;28;20382;-51
2022/07/28 00:53:30;;;;;;;6.80;1.88;;;18.90;99.90;;;;;;5049734;28;20728;-50
2022/07/28 00:55:57;;;;;;;7.32;2.00;;;18.90;99.90;;;;;;5050819;28;20416;-51
2022/07/28 00:58:24;;;;;;;5.90;2.30;;;18.80;99.90;;;;;;5053443;28;20476;-51
2022/07/28 01:00:50;;;;;;;6.25;2.10;;;18.70;99.90;;;;;;5050333;28;20390;-56
2022/07/28 01:03:17;;;;;;;8.68;2.20;;;18.60;99.90;;;;;;5050039;28;20463;-59
2022/07/28 01:05:57;;;;;;;6.88;1.83;;;18.50;99.90;;;;;;5050710;28;20413;-51
2022/07/28 01:08:36;;;;;;;9.30;2.10;;;18.40;99.90;;;;;;5043161;28;20389;-52
2022/07/28 01:11:10;;;;;;;8.60;2.17;;;18.40;99.90;;;;;;5045132;28;20397;-51
2022/07/28 01:13:49;;;;;;;5.80;2.00;;;18.40;99.90;;;;;;5049753;28;20389;-52
2022/07/28 01:16:15;;;;;;;6.20;2.10;;;18.40;99.90;;;;;;5050373;28;20976;-60
2022/07/28 01:18:53;;;;;;;7.35;2.00;;;18.50;99.90;;;;;;5049818;28;20992;-55
2022/07/28 01:21:25;;;;;;;6.10;1.90;;;18.60;99.90;;;;;;5049577;28;20420;-55
2022/07/28 01:24:34;;;;;;;6.72;2.00;;;18.50;99.90;;;;;;5050701;28;20382;-53
2022/07/28 01:27:04;;;;;;;7.32;1.70;;;18.30;99.90;;;;;;5038222;28;20467;-52
2022/07/28 01:30:00;;;;;;;7.20;1.98;;;18.20;99.90;;;;;;5051165;28;20761;-50
2022/07/28 01:32:31;;;;;;;5.57;1.60;;;18.20;99.90;;;;;;5044968;28;20467;-53
2022/07/28 01:35:17;;;;;;;6.70;1.90;;;18.20;99.90;;;;;;5049960;28;20484;-51
2022/07/28 01:37:53;;;;;;;6.10;1.70;;;18.20;99.90;;;;;;5050097;28;20389;-51
2022/07/28 01:40:22;;;;;;;7.60;1.95;;;18.20;99.90;;;;;;5049477;28;20377;-53
2022/07/28 01:42:53;;;;;;;8.70;2.10;;;18.20;99.90;;;;;;5049836;28;20856;-51
2022/07/28 01:45:20;;;;;;;5.47;1.80;;;18.10;99.90;;;;;;5043089;28;20763;-59
2022/07/28 01:47:47;;;;;;;7.00;2.10;;;18.00;99.90;;;;;;5037363;28;20929;-51
2022/07/28 01:50:16;;;;;;;6.25;1.73;;;18.00;99.90;;;;;;5049876;28;20440;-51
2022/07/28 01:52:45;;;;;;;6.65;1.90;;;17.90;99.90;;;;;;5049033;28;20481;-51
2022/07/28 01:55:12;;;;;;;7.93;2.07;;;17.80;99.90;;;;;;5049722;28;20424;-51
2022/07/28 01:57:39;;;;;;;9.57;2.20;;;17.60;99.90;;;;;;5051149;28;20866;-51
2022/07/28 02:00:09;;;;;;;6.00;1.80;;;17.60;99.90;;;;;;5049423;28;20897;-52
2022/07/28 02:02:37;;;;;;;6.70;2.03;;;17.60;99.90;;;;;;5047534;28;20397;-51
2022/07/28 02:05:05;;;;;;;8.25;1.92;;;17.50;99.90;;;;;;5049326;28;20398;-51
2022/07/28 02:07:32;;;;;;;5.85;1.90;;;17.50;99.90;;;;;;5048793;28;20448;-50
2022/07/28 02:10:00;;;;;;;8.70;2.00;;;17.50;99.90;;;;;;5049338;28;20443;-52
2022/07/28 02:12:26;;;;;;;5.88;1.70;;;17.40;99.90;;;;;;5048992;28;20378;-50
2022/07/28 02:14:54;;;;;;;6.63;1.90;;;17.40;99.90;;;;;;5031590;28;20381;-51
2022/07/28 02:17:28;;;;;;;9.60;1.80;;;17.40;99.90;;;;;;5048592;28;20390;-58
2022/07/28 02:19:56;;;;;;;6.00;1.90;;;17.30;99.90;;;;;;5049405;28;20477;-50
2022/07/28 02:22:22;;;;;;;8.40;2.37;;;17.30;99.90;;;;;;5048842;28;20390;-51
2022/07/28 02:24:48;;;;;;;9.10;1.80;;;17.30;99.90;;;;;;5049068;28;20394;-50
2022/07/28 02:27:22;;;;;;;6.55;1.60;;;17.30;99.90;;;;;;5054575;28;20901;-55
2022/07/28 02:29:55;;;;;;;7.00;1.92;;;17.40;99.90;;;;;;5049299;28;20488;-51
2022/07/28 02:32:28;;;;;;;8.10;1.88;;;17.50;99.90;;;;;;5048444;28;20464;-55
2022/07/28 02:34:57;;;;;;;8.27;1.90;;;17.60;99.90;;;;;;5048762;28;20394;-54
2022/07/28 02:37:22;;;;;;;6.00;1.80;;;17.70;99.90;;;;;;5048089;28;20485;-52
2022/07/28 02:39:57;;;;;;;7.33;1.80;;;17.80;99.90;;;;;;5049066;28;20863;-53
2022/07/28 02:42:28;;;;;;;6.55;1.98;;;17.70;99.90;;;;;;5049803;28;20400;-50
2022/07/28 02:45:04;;;;;;;7.80;1.60;;;17.60;99.90;;;;;;5052714;28;20750;-50
2022/07/28 02:47:35;;;;;;;7.63;1.88;;;17.60;99.90;;;;;;5052300;28;20929;-51
2022/07/28 02:50:02;;;;;;;9.20;2.30;;;17.60;99.90;;;;;;5053209;28;20396;-52
2022/07/28 02:52:29;;;;;;;7.80;1.95;;;17.70;99.90;;;;;;5052625;28;20417;-52
2022/07/28 02:54:56;;;;;;;6.97;2.03;;;17.70;99.90;;;;;;5052655;28;20389;-53
2022/07/28 02:57:24;;;;;;;7.13;2.13;;;17.70;99.90;;;;;;5053609;28;20801;-54
2022/07/28 02:59:51;;;;;;;9.33;1.80;;;17.70;99.90;;;;;;5052516;28;20870;-53
2022/07/28 03:02:21;;;;;;;5.88;1.90;;;17.80;99.90;;;;;;5052551;28;20380;-59
2022/07/28 03:05:03;;;;;;;7.00;1.92;;;17.70;99.90;;;;;;5050451;28;20480;-53
2022/07/28 03:07:30;;;;;;;7.95;1.80;;;17.70;99.90;;;;;;5047557;28;20445;-57
2022/07/28 03:09:57;;;;;;;5.78;1.70;;;17.70;99.90;;;;;;5052652;28;20400;-53
2022/07/28 03:12:23;;;;;;;6.55;1.70;;;17.50;99.90;;;;;;5052209;28;20377;-53
2022/07/28 03:14:48;;;;;;;6.05;1.95;;;17.50;99.90;;;;;;5052597;28;20441;-54
2022/07/28 03:17:14;;;;;;;7.37;2.17;;;17.30;99.90;;;;;;5052781;28;20385;-52
2022/07/28 03:19:40;;;;;;;5.50;1.83;;;17.20;99.90;;;;;;5051669;28;20448;-53
2022/07/28 03:22:06;;;;;;;6.90;1.60;;;17.30;99.90;;;;;;5052510;28;20921;-53
2022/07/28 03:24:35;;;;;;;7.10;1.70;;;17.30;99.90;;;;;;5051697;28;20847;-53
2022/07/28 03:27:21;;;;;;;8.77;1.83;;;17.20;99.90;;;;;;5056398;28;20450;-52
2022/07/28 03:29:52;;;;;;;7.50;2.13;;;17.10;99.90;;;;;;5052282;28;20413;-53
2022/07/28 03:32:20;;;;;;;9.23;2.03;;;17.00;99.90;;;;;;5051725;28;20409;-59
2022/07/28 03:34:47;;;;;;;5.70;1.80;;;16.80;99.90;;;;;;5052482;28;20936;-50
2022/07/28 03:37:17;;;;;;;7.70;1.83;;;17.00;99.90;;;;;;5052582;28;20432;-51
2022/07/28 03:39:47;;;;;;;6.70;1.90;;;17.00;99.90;;;;;;5051446;28;20866;-52
2022/07/28 03:42:16;;;;;;;8.02;1.80;;;17.00;99.90;;;;;;5052418;28;20437;-50
2022/07/28 03:44:42;;;;;;;7.03;1.90;;;17.00;99.90;;;;;;5051753;28;20904;-50
2022/07/28 03:47:08;;;;;;;6.22;2.13;;;16.90;99.90;;;;;;5034100;28;20795;-50
2022/07/28 03:49:34;;;;;;;6.23;1.80;;;16.90;99.90;;;;;;5051034;28;20409;-51
2022/07/28 03:51:59;;;;;;;5.80;2.00;;;17.00;1.00;;;;;;5052341;28;20381;-50
2022/07/28 03:54:25;;;;;;;7.60;1.70;;;16.90;1.00;;;;;;5032383;28;20405;-51
2022/07/28 03:56:51;;;;;;;7.10;2.10;;;16.90;1.00;;;;;;5052234;28;20783;-56
2022/07/28 03:59:17;;;;;;;6.50;1.70;;;17.00;1.00;;;;;;5051656;28;20397;-55
2022/07/28 04:01:44;;;;;;;7.68;1.92;;;16.90;1.00;;;;;;5050902;28;20374;-51
2022/07/28 04:04:09;;;;;;;9.40;1.98;;;16.80;1.00;;;;;;5051319;28;20785;-50
2022/07/28 04:06:35;;;;;;;8.02;2.00;;;16.80;1.00;;;;;;5050012;28;20539;-52
2022/07/28 04:09:01;;;;;;;8.57;2.23;;;16.70;1.00;;;;;;5051336;28;20421;-50
2022/07/28 04:11:26;;;;;;;7.50;2.10;;;16.70;1.00;;;;;;5051287;28;20894;-51
2022/07/28 04:13:52;;;;;;;6.45;2.17;;;16.70;1.00;;;;;;5051659;28;20381;-51
2022/07/28 04:16:18;;;;;;;7.27;2.37;;;16.70;1.00;;;;;;5050630;28;20409;-59
2022/07/28 04:18:43;;;;;;;6.30;2.33;;;16.50;1.00;;;;;;5051226;28;20742;-50
2022/07/28 04:21:09;;;;;;;6.03;2.10;;;16.60;1.00;;;;;;5051362;28;20924;-50
2022/07/28 04:23:35;;;;;;;8.98;2.20;;;16.60;1.00;;;;;;5050525;28;20496;-53
2022/07/28 04:26:00;;;;;;;6.67;2.37;;;16.60;1.00;;;;;;5051036;28;20432;-51
2022/07/28 04:28:26;;;;;;;10.47;3.23;;;16.60;1.00;;;;;;5053020;28;20389;-54
2022/07/28 04:30:51;;;;;;;7.90;3.13;;;16.70;1.00;;;;;;5050821;28;20393;-50
2022/07/28 04:33:18;;;;;;;11.85;3.80;;;16.90;1.00;;;;;;5050713;28;20390;-59
2022/07/28 04:35:44;;;;;;;13.15;5.10;;;17.10;1.00;;;;;;5050049;28;20389;-51
2022/07/28 04:38:13;;;;;;;13.00;3.58;;;17.10;1.00;;;;;;5051113;28;20874;-50
2022/07/28 04:40:40;;;;;;;9.52;3.30;;;17.10;1.00;;;;;;5032511;28;20449;-51
2022/07/28 04:43:07;;;;;;;7.72;2.63;;;17.20;1.00;;;;;;5050805;28;20480;-50
2022/07/28 04:45:33;;;;;;;7.88;1.77;;;17.30;1.00;;;;;;5049466;28;20385;-50
2022/07/28 04:47:58;;;;;;;6.40;2.30;;;17.40;1.00;;;;;;5050726;28;20389;-51
2022/07/28 04:50:24;;;;;;;8.52;2.20;;;17.60;1.00;;;;;;5050118;28;20393;-51
2022/07/28 04:52:49;;;;;;;8.50;2.10;;;17.60;1.00;;;;;;5050674;28;20428;-50
2022/07/28 04:55:16;;;;;;;6.70;2.20;;;17.80;1.00;;;;;;5044418;28;20405;-50
2022/07/28 04:57:42;;;;;;;8.27;2.28;;;17.90;1.00;;;;;;5049714;28;20597;-50
2022/07/28 05:00:13;;;;;;;8.55;2.10;;;17.90;1.00;;;;;;5050502;28;20488;-50
2022/07/28 05:02:40;;;;;;;6.60;2.00;;;17.90;1.00;;;;;;5049994;28;20374;-55
2022/07/28 05:05:06;;;;;;;7.20;2.40;;;18.10;1.00;;;;;;5049683;28;20476;-54
2022/07/28 05:07:32;;;;;;;12.23;2.40;;;18.30;1.00;;;;;;5048704;28;20417;-50
2022/07/28 05:09:58;;;;;;;7.07;2.40;;;18.70;1.00;;;;;;5050191;28;20401;-51
2022/07/28 05:12:23;;;;;;;6.63;2.20;;;19.30;1.00;;;;;;5031479;28;20397;-51
2022/07/28 05:14:49;;;;;;;7.00;2.10;;;20.30;99.90;;;;;;5050358;28;20396;-50
2022/07/28 05:17:14;;;;;;;9.02;2.03;;;20.60;99.90;;;;;;5049955;28;20878;-50
2022/07/28 05:19:40;;;;;;;6.20;2.13;;;20.60;99.90;;;;;;5048880;28;20385;-50
2022/07/28 05:22:06;;;;;;;6.97;2.10;;;20.80;99.90;;;;;;5050450;28;20384;-51
2022/07/28 05:24:31;;;;;;;7.32;2.45;;;21.60;99.90;;;;;;5049826;28;20921;-51
2022/07/28 05:26:57;;;;;;;8.00;2.50;;;22.10;99.90;;;;;;5049824;28;20429;-52
2022/07/28 05:29:23;;;;;;;7.70;2.40;;;22.00;99.90;;;;;;5049188;28;20731;-58
2022/07/28 05:31:49;;;;;;;9.50;2.93;;;21.60;99.90;;;;;;5049072;28;20890;-50
2022/07/28 05:34:14;;;;;;;8.80;2.90;;;21.30;99.90;;;;;;5049509;28;20443;-51
2022/07/28 05:36:40;;;;;;;9.50;2.70;;;21.60;99.90;;;;;;5056646;28;21161;-51
2022/07/28 05:39:06;;;;;;;10.02;2.58;;;21.90;99.90;;;;;;5050299;28;20459;-56
2022/07/28 05:41:31;;;;;;;6.90;2.72;;;22.50;99.90;;;;;;5049276;28;20381;-51
2022/07/28 05:44:00;;;;;;;7.90;2.67;;;23.10;99.90;;;;;;5048336;28;20432;-51
2022/07/28 05:46:26;;;;;;;8.40;3.13;;;23.30;99.90;;;;;;5049589;28;20429;-51
2022/07/28 05:48:52;;;;;;;6.55;2.60;;;23.70;99.90;;;;;;5049278;28;20384;-51
2022/07/28 05:51:17;;;;;;;9.40;3.70;;;23.30;99.90;;;;;;5047762;28;20472;-51
2022/07/28 05:53:43;;;;;;;7.37;3.10;;;22.80;99.90;;;;;;5047343;28;20408;-52
2022/07/28 05:56:09;;;;;;;10.53;3.80;;;23.00;99.90;;;;;;5048891;28;20411;-51
2022/07/28 05:58:34;;;;;;;6.90;3.20;;;23.60;99.90;;;;;;5053364;28;20377;-51
2022/07/28 06:01:01;;;;;;;8.50;3.60;;;24.50;99.90;;;;;;5048907;28;20675;-51
2022/07/28 06:03:30;;;;;;;10.93;3.10;;;24.70;99.90;;;;;;5045807;28;20425;-59
2022/07/28 06:05:56;;;;;;;8.52;3.10;;;25.60;99.90;;;;;;5045132;28;20416;-52
2022/07/28 06:08:23;;;;;;;10.15;2.90;;;26.00;99.90;;;;;;5049380;28;20389;-60
2022/07/28 06:11:00;;;;;;;8.18;3.15;;;26.30;99.90;;;;;;5049425;28;20873;-52
2022/07/28 06:13:27;;;;;;;7.10;2.50;;;27.00;99.90;;;;;;5042464;28;20393;-51
2022/07/28 06:15:53;;;;;;;7.93;2.70;;;27.10;99.90;;;;;;5049467;28;20385;-52
2022/07/28 06:18:19;;;;;;;8.27;2.90;;;27.30;99.90;;;;;;5046724;28;20393;-52
2022/07/28 06:20:45;;;;;;;8.32;3.72;;;28.10;99.90;;;;;;5047711;28;20956;-52
2022/07/28 06:23:11;;;;;;;7.05;3.63;;;28.40;99.90;;;;;;5049214;28;20393;-53
2022/07/28 06:25:37;;;;;;;8.15;3.10;;;27.90;99.90;;;;;;5048288;28;20411;-52
2022/07/28 06:28:04;;;;;;;7.93;4.13;;;29.00;99.90;;;;;;5048883;28;20429;-52
2022/07/28 06:30:31;;;;;;;8.73;4.40;;;29.30;99.90;;;;;;5047289;28;20767;-53
2022/07/28 06:32:57;;;;;;;9.90;4.10;;;29.30;99.90;;;;;;5045343;28;20405;-52
2022/07/28 06:35:23;;;;;;;8.00;4.00;;;29.70;99.90;;;;;;5048207;28;20731;-61
2022/07/28 06:37:50;;;;;;;8.90;3.90;;;29.70;99.90;;;;;;5048962;28;20381;-53
2022/07/28 06:40:17;;;;;;;8.90;4.20;;;29.80;99.90;;;;;;5049037;28;20377;-55
2022/07/28 06:42:43;;;;;;;8.47;4.37;;;30.00;99.90;;;;;;5048970;28;20384;-52
2022/07/28 06:45:11;;;;;;;7.47;4.07;;;30.10;99.90;;;;;;5049308;28;20399;-52
2022/07/28 06:47:37;;;;;;;9.38;4.43;;;30.30;99.90;;;;;;5048047;28;20793;-54
2022/07/28 06:50:06;;;;;;;7.60;3.93;;;30.70;99.90;;;;;;5048886;28;20392;-53
2022/07/28 06:52:32;;;;;;;11.13;4.40;;;31.00;99.90;;;;;;5048001;28;20439;-52
2022/07/28 06:54:59;;;;;;;7.32;4.32;;;30.90;99.90;;;;;;5049134;28;20736;-52
2022/07/28 06:57:25;;;;;;;9.07;4.90;;;31.40;99.90;;;;;;5051409;28;20421;-54
2022/07/28 06:59:51;;;;;;;9.23;5.00;;;30.90;99.90;;;;;;5048686;28;20814;-52
2022/07/28 07:02:17;;;;;;;8.37;4.00;;;30.70;99.90;;;;;;5048028;28;20472;-53
2022/07/28 07:04:43;;;;;;;9.27;4.40;;;31.00;99.90;;;;;;5048177;28;20389;-53
2022/07/28 07:07:09;;;;;;;7.50;4.50;;;31.60;99.90;;;;;;5030574;28;20401;-53
2022/07/28 07:09:34;;;;;;;9.23;5.50;;;32.00;99.90;;;;;;5048432;28;20454;-53
2022/07/28 07:12:00;;;;;;;11.60;5.20;;;32.10;99.90;;;;;;5048829;28;20472;-53
2022/07/28 07:14:26;;;;;;;12.07;6.38;;;32.20;99.90;;;;;;5048089;28;20443;-54
2022/07/28 07:16:52;;;;;;;11.35;6.20;;;31.80;99.90;;;;;;5048765;28;20917;-55
2022/07/28 07:19:19;;;;;;;10.60;5.22;;;32.10;99.90;;;;;;5048667;28;20877;-52
2022/07/28 07:21:46;;;;;;;10.52;6.20;;;32.50;99.90;;;;;;5047936;28;20488;-52
2022/07/28 07:24:11;;;;;;;10.48;5.80;;;32.90;99.90;;;;;;5048938;28;20475;-53
2022/07/28 07:26:37;;;;;;;8.98;5.68;;;32.80;99.90;;;;;;5047525;28;20843;-53
2022/07/28 07:29:04;;;;;;;12.07;6.78;;;33.20;99.90;;;;;;5048550;28;20998;-55
2022/07/28 07:31:34;;;;;;;8.90;5.60;;;33.40;99.90;;;;;;5051172;28;20435;-52
2022/07/28 07:34:00;;;;;;;10.13;5.60;;;33.50;99.90;;;;;;5051932;28;20385;-52
2022/07/28 07:36:25;;;;;;;10.03;5.90;;;33.10;99.90;;;;;;5050634;28;21001;-61
2022/07/28 07:38:51;;;;;;;8.85;5.90;;;33.00;99.90;;;;;;5048572;28;20382;-53
2022/07/28 07:41:17;;;;;;;10.00;7.63;;;33.50;99.90;;;;;;5051698;28;20396;-53
2022/07/28 07:43:44;;;;;;;8.63;5.93;;;34.10;99.90;;;;;;5050842;28;20378;-53
2022/07/28 07:46:09;;;;;;;8.80;4.40;;;34.00;99.90;;;;;;5049208;28;20495;-53
2022/07/28 07:48:35;;;;;;;8.90;4.03;;;33.50;99.90;;;;;;5050542;28;20389;-53
2022/07/28 07:51:01;;;;;;;8.50;3.60;;;34.50;99.90;;;;;;5050992;28;20463;-53
2022/07/28 07:53:26;;;;;;;13.90;7.90;;;34.70;99.90;;;;;;5050788;28;20409;-53
2022/07/28 07:55:52;;;;;;;10.13;6.20;;;34.80;99.90;;;;;;5051554;28;20435;-54
2022/07/28 07:58:18;;;;;;;11.02;5.60;;;35.00;99.90;;;;;;5051286;28;20434;-54
2022/07/28 08:00:43;;;;;;;9.27;5.20;;;35.90;99.90;;;;;;5049210;28;20515;-53
2022/07/28 08:03:09;;;;;;;10.60;6.40;;;35.80;99.90;;;;;;5051196;28;20443;-53
2022/07/28 08:05:35;;;;;;;10.15;5.60;;;35.80;99.90;;;;;;5049116;28;20444;-57
2022/07/28 08:08:00;;;;;;;8.80;6.50;;;35.50;99.90;;;;;;5051242;28;20464;-53
2022/07/28 08:10:29;;;;;;;9.32;5.80;;;35.60;99.90;;;;;;5050272;28;20424;-62
2022/07/28 08:12:57;;;;;;;10.17;5.50;;;36.80;99.90;;;;;;5051281;28;20705;-53
2022/07/28 08:15:27;;;;;;;9.60;4.90;;;36.40;99.90;;;;;;5051739;28;20388;-61
2022/07/28 08:17:53;;;;;;;9.82;4.70;;;36.60;99.90;;;;;;5051064;28;20386;-53
2022/07/28 08:20:19;;;;;;;8.53;4.47;;;36.20;99.90;;;;;;5051774;28;20378;-54
2022/07/28 08:22:48;;;;;;;8.00;4.73;;;36.90;99.90;;;;;;5050887;28;20373;-53
2022/07/28 08:25:14;;;;;;;8.23;5.55;;;36.90;99.90;;;;;;5051066;28;20389;-53
2022/07/28 08:27:40;;;;;;;9.73;5.25;;;36.50;99.90;;;;;;5050421;28;20436;-54
2022/07/28 08:30:07;;;;;;;8.90;6.00;;;37.20;99.90;;;;;;5051566;28;20448;-54
2022/07/28 08:32:32;;;;;;;11.05;5.50;;;36.80;99.90;;;;;;5050347;28;20389;-53
2022/07/28 08:34:58;;;;;;;9.27;5.03;;;36.90;99.90;;;;;;5051468;28;20381;-58
2022/07/28 08:37:23;;;;;;;9.95;5.22;;;37.40;99.90;;;;;;5050676;28;20400;-62
2022/07/28 08:39:49;;;;;;;9.87;5.63;;;38.00;99.90;;;;;;5046378;28;20392;-53
2022/07/28 08:42:19;;;;;;;9.40;5.23;;;38.60;99.90;;;;;;5050882;28;20739;-53
2022/07/28 08:45:02;;;;;;;9.43;5.20;;;37.60;99.90;;;;;;5050104;28;20369;-53
2022/07/28 08:47:30;;;;;;;10.93;5.32;;;37.20;99.90;;;;;;5047368;28;20516;-62
2022/07/28 08:49:58;;;;;;;8.70;5.50;;;37.00;99.90;;;;;;5042339;28;20444;-56
2022/07/28 08:52:27;;;;;;;8.88;5.50;;;36.40;99.90;;;;;;5050286;28;20416;-63
2022/07/28 08:54:55;;;;;;;10.47;6.50;;;36.40;99.90;;;;;;5050549;28;20530;-54
2022/07/28 08:57:29;;;;;;;9.52;5.85;;;36.30;99.90;;;;;;5046633;28;20882;-61
2022/07/28 08:59:55;;;;;;;9.02;5.50;;;37.10;99.90;;;;;;5043200;28;20393;-54
2022/07/28 09:02:24;;;;;;;9.10;5.72;;;36.70;99.90;;;;;;5039745;28;20449;-54
2022/07/28 09:04:51;;;;;;;10.48;5.30;;;36.60;99.90;;;;;;5040086;28;20385;-54
2022/07/28 09:07:16;;;;;;;10.90;5.55;;;37.60;99.90;;;;;;5040711;28;20504;-56
2022/07/28 09:09:43;;;;;;;10.15;5.43;;;37.40;99.90;;;;;;5043352;28;20489;-54
2022/07/28 09:12:09;;;;;;;8.80;6.07;;;37.50;99.90;;;;;;5041189;28;20480;-54
2022/07/28 09:14:34;;;;;;;10.43;5.40;;;37.10;99.90;;;;;;5044624;28;20480;-54
2022/07/28 09:17:01;;;;;;;8.85;5.18;;;36.70;99.90;;;;;;5044308;28;20398;-63
2022/07/28 09:19:27;;;;;;;9.40;5.70;;;36.60;99.90;;;;;;5038906;28;20392;-54
2022/07/28 09:21:55;;;;;;;8.38;5.57;;;37.30;99.90;;;;;;5041943;28;20466;-58
2022/07/28 09:24:46;;;;;;;9.50;5.70;;;37.70;99.90;;;;;;5040137;28;20894;-53
2022/07/28 09:27:14;;;;;;;10.85;5.70;;;38.70;99.90;;;;;;5046535;28;21011;-53
2022/07/28 09:29:44;;;;;;;9.07;5.50;;;38.00;99.90;;;;;;5039387;28;20381;-53
2022/07/28 09:32:12;;;;;;;8.70;5.47;;;37.00;99.90;;;;;;5040598;28;20395;-53
2022/07/28 09:34:42;;;;;;;9.57;5.47;;;38.10;99.90;;;;;;5039945;28;20387;-54
2022/07/28 09:37:24;;;;;;;10.90;5.60;;;38.10;99.90;;;;;;5039896;28;20488;-58
2022/07/28 09:39:56;;;;;;;9.67;5.53;;;38.20;99.90;;;;;;5040984;28;20436;-53
2022/07/28 09:42:23;;;;;;;10.30;5.65;;;39.10;99.90;;;;;;5039467;28;20869;-58
2022/07/28 09:45:06;;;;;;;9.00;5.45;;;39.30;99.90;;;;;;5040072;28;20457;-56
2022/07/28 09:47:33;;;;;;;8.80;5.72;;;38.60;99.90;;;;;;5039596;28;20417;-53
2022/07/28 09:50:00;;;;;;;11.37;9.20;;;37.00;99.90;;;;;;5039694;28;20868;-53
2022/07/28 09:52:34;;;;;;;10.07;5.60;;;36.20;99.90;;;;;;5038308;28;20872;-62
2022/07/28 09:55:08;;;;;;;9.40;5.90;;;36.60;99.90;;;;;;5042039;28;20879;-53
2022/07/28 09:57:36;;;;;;;9.50;5.78;;;37.30;99.90;;;;;;5039603;28;20425;-55
2022/07/28 10:00:05;;;;;;;8.90;5.80;;;37.50;99.90;;;;;;5038201;28;21011;-55
2022/07/28 10:02:31;;;;;;;9.63;6.00;;;37.50;99.90;;;;;;5041724;28;20389;-54
2022/07/28 10:05:01;;;;;;;10.40;6.88;;;37.50;99.90;;;;;;5040826;28;20393;-53
2022/07/28 10:07:28;;;;;;;9.10;5.68;;;37.40;99.90;;;;;;5040691;28;21012;-56
2022/07/28 10:10:05;;;;;;;9.40;6.32;;;37.70;99.90;;;;;;5043115;28;20493;-54
2022/07/28 10:12:33;;;;;;;10.65;6.30;;;37.60;99.90;;;;;;5047636;28;20389;-53
2022/07/28 10:17:59;;;;;;;10.35;6.00;;;37.60;99.90;;;;;;5044367;28;20396;-53
2022/07/28 10:20:26;;;;;;;10.02;5.80;;;37.60;99.90;;;;;;5046628;28;20377;-63
2022/07/28 10:23:04;;;;;;;12.80;5.20;;;38.40;99.90;;;;;;5047456;28;20435;-54
2022/07/28 10:25:32;;;;;;;9.68;5.50;;;38.30;1.00;;;;;;5046167;28;20401;-58
2022/07/28 10:27:59;;;;;;;8.73;5.32;;;38.30;1.00;;;;;;5050431;28;20419;-59
2022/07/28 10:30:27;;;;;;;8.80;5.78;;;38.10;1.00;;;;;;5047435;28;20868;-63
2022/07/28 10:32:55;;;;;;;9.20;5.72;;;38.10;1.00;;;;;;5043214;28;20471;-54
2022/07/28 10:35:24;;;;;;;9.63;5.63;;;37.40;1.00;;;;;;5037760;28;20835;-54
2022/07/28 10:38:15;;;;;;;11.10;6.25;;;36.90;1.00;;;;;;5030581;28;20746;-54
2022/07/28 10:40:46;;;;;;;8.70;5.32;;;36.30;1.00;;;;;;5047604;28;20932;-53
2022/07/28 10:43:12;;;;;;;10.30;8.10;;;36.00;1.00;;;;;;5048308;28;20780;-54
2022/07/28 10:45:38;;;;;;;9.45;7.50;;;35.50;1.00;;;;;;5045211;28;20378;-53
2022/07/28 10:48:05;;;;;;;10.18;8.05;;;34.90;99.90;;;;;;5048313;28;20500;-53
2022/07/28 10:50:33;;;;;;;9.80;7.93;;;34.10;99.90;;;;;;5047719;28;20393;-54
2022/07/28 10:53:00;;;;;;;9.40;7.32;;;33.90;99.90;;;;;;5048416;28;20385;-54
2022/07/28 10:55:31;;;;;;;12.15;7.10;;;33.80;99.90;;;;;;5047768;28;20397;-62
2022/07/28 10:58:20;;;;;;;9.10;6.65;;;33.40;99.90;;;;;;5046857;28;20398;-53
2022/07/28 11:00:50;;;;;;;10.50;8.02;;;33.10;99.90;;;;;;5045489;28;20397;-55
2022/07/28 11:03:42;;;;;;;12.50;8.32;;;32.90;99.90;;;;;;5049250;28;20486;-53
2022/07/28 11:06:28;;;;;;;10.00;8.07;;;32.50;99.90;;;;;;5051275;28;20543;-53
2022/07/28 11:08:55;;;;;;;9.55;7.90;;;32.60;99.90;;;;;;5051791;28;20385;-53
2022/07/28 11:11:43;;;;;;;10.40;7.63;;;32.30;99.90;;;;;;5050623;28;20412;-53
2022/07/28 11:14:28;;;;;;;11.25;7.90;;;31.90;99.90;;;;;;5050943;28;20476;-53
2022/07/28 11:17:00;;;;;;;13.10;8.00;;;31.90;99.90;;;;;;5042947;28;20413;-53
2022/07/28 11:19:44;;;;;;;10.73;7.72;;;31.80;99.90;;;;;;5049024;28;20731;-63
2022/07/28 11:24:57;;;;;;;10.00;6.70;;;32.10;99.90;;;;;;5051092;28;20882;-53
2022/07/28 11:27:45;;;;;;;11.50;7.80;;;32.40;99.90;;;;;;5048255;28;20467;-53
2022/07/28 11:30:30;;;;;;;9.80;7.55;;;32.50;99.90;;;;;;5050723;28;20392;-53
2022/07/28 11:32:56;;;;;;;10.70;8.30;;;32.20;99.90;;;;;;5049298;28;20420;-54
2022/07/28 11:35:24;;;;;;;10.60;8.63;;;32.00;99.90;;;;;;5046922;28;21570;-53
2022/07/28 11:38:02;;;;;;;12.02;6.80;;;32.10;99.90;;;;;;5049929;28;20901;-53
2022/07/28 11:40:40;;;;;;;11.80;7.70;;;31.90;99.90;;;;;;5050209;28;20417;-62
2022/07/28 11:43:39;;;;;;;12.07;8.07;;;31.70;99.90;;;;;;5051553;28;20827;-53
2022/07/28 11:46:05;;;;;;;8.93;6.90;;;32.20;99.90;;;;;;5043004;28;20885;-53
2022/07/28 11:48:32;;;;;;;8.77;7.30;;;32.80;99.90;;;;;;5050547;28;20394;-53
2022/07/28 11:51:03;;;;;;;8.53;6.73;;;33.50;99.90;;;;;;5049971;28;20874;-53
2022/07/28 11:53:43;;;;;;;9.82;7.70;;;33.60;99.90;;;;;;5048954;28;20398;-54
2022/07/28 11:56:11;;;;;;;10.20;6.97;;;33.40;99.90;;;;;;5049776;28;20511;-53
2022/07/28 11:58:38;;;;;;;10.13;8.32;;;33.20;99.90;;;;;;5048730;28;20867;-53
2022/07/28 12:01:19;;;;;;;12.48;7.55;;;32.50;99.90;;;;;;5051166;28;20873;-52
2022/07/28 12:03:49;;;;;;;13.02;8.27;;;32.10;99.90;;;;;;5050084;28;20417;-53
2022/07/28 12:06:16;;;;;;;9.70;8.23;;;31.90;99.90;;;;;;5051109;28;20435;-55
2022/07/28 12:08:51;;;;;;;10.82;8.00;;;32.00;99.90;;;;;;5050269;28;20378;-54
2022/07/28 12:11:17;;;;;;;9.15;6.70;;;32.10;99.90;;;;;;5051145;28;20389;-53
2022/07/28 12:13:43;;;;;;;9.52;7.60;;;32.20;99.90;;;;;;5049797;28;20743;-53
2022/07/28 12:16:09;;;;;;;9.70;7.70;;;31.90;99.90;;;;;;5049704;28;20390;-54
2022/07/28 12:18:35;;;;;;;10.10;7.73;;;31.70;99.90;;;;;;5049803;28;20385;-54
2022/07/28 12:21:01;;;;;;;11.20;7.90;;;32.00;99.90;;;;;;5050019;28;21146;-53
2022/07/28 12:23:36;;;;;;;9.70;7.80;;;32.70;99.90;;;;;;5047035;28;20758;-62
2022/07/28 12:26:06;;;;;;;11.77;7.90;;;32.80;99.90;;;;;;5047973;28;20468;-54
2022/07/28 12:28:31;;;;;;;10.43;7.03;;;32.70;99.90;;;;;;5048197;28;20410;-53
2022/07/28 12:31:11;;;;;;;9.87;7.50;;;32.50;99.90;;;;;;5049943;28;20472;-53
2022/07/28 12:33:37;;;;;;;10.20;7.50;;;32.20;99.90;;;;;;5035911;28;20488;-53
2022/07/28 12:36:03;;;;;;;9.80;6.90;;;32.30;99.90;;;;;;5049445;28;20473;-53
2022/07/28 12:38:29;;;;;;;10.20;7.20;;;32.40;99.90;;;;;;5048273;28;20486;-53
2022/07/28 12:40:55;;;;;;;10.80;8.30;;;32.40;99.90;;;;;;5049678;28;20382;-53
2022/07/28 12:43:22;;;;;;;9.68;7.88;;;31.90;99.90;;;;;;5048868;28;20786;-56
2022/07/28 12:45:48;;;;;;;10.00;7.15;;;31.30;99.90;;;;;;5048416;28;20381;-59
2022/07/28 12:48:17;;;;;;;10.27;7.93;;;31.50;99.90;;;;;;5049327;28;20434;-53
2022/07/28 12:50:44;;;;;;;9.70;7.80;;;31.50;99.90;;;;;;5047452;28;20862;-54
2022/07/28 12:53:11;;;;;;;10.20;7.70;;;31.80;99.90;;;;;;5050231;28;20778;-53
2022/07/28 12:55:38;;;;;;;9.75;7.20;;;31.90;99.90;;;;;;5048720;28;20880;-53
2022/07/28 12:58:05;;;;;;;9.80;8.00;;;31.80;99.90;;;;;;5049816;28;20405;-53
2022/07/28 13:00:34;;;;;;;10.30;7.45;;;31.80;99.90;;;;;;5049077;28;20473;-54